createdAt,value
2023-02-16T00:01:25.844Z,29.33
2023-02-16T00:03:54.755Z,28.47
2023-02-16T00:06:22.318Z,31.07
2023-02-16T00:08:52.509Z,28.60
2023-02-16T00:11:49.883Z,28.50
2023-02-16T00:14:18.277Z,30.60
2023-02-16T00:16:45.847Z,28.40
2023-02-16T00:19:18.665Z,30.17
2023-02-16T00:21:46.183Z,28.70
2023-02-16T00:24:15.295Z,29.50
2023-02-16T00:26:43.468Z,33.23
2023-02-16T00:29:16.431Z,26.60
2023-02-16T00:31:44.005Z,27.50
2023-02-16T00:34:26.549Z,28.10
2023-02-16T00:36:54.122Z,28.73
2023-02-16T00:39:24.868Z,28.57
2023-02-16T00:41:53.754Z,28.90
2023-02-16T00:44:30.759Z,28.90
2023-02-16T00:46:58.497Z,28.67
2023-02-16T00:49:26.016Z,30.63
2023-02-16T00:51:53.616Z,28.60
2023-02-16T00:54:21.163Z,31.93
2023-02-16T00:56:50.035Z,30.07
2023-02-16T00:59:19.708Z,26.97
2023-02-16T01:01:47.364Z,30.23
2023-02-16T01:04:21.359Z,31.17
2023-02-16T01:07:06.687Z,29.43
2023-02-16T01:09:52.266Z,26.60
2023-02-16T01:12:21.702Z,26.93
2023-02-16T01:14:53.165Z,29.10
2023-02-16T01:17:20.641Z,29.27
2023-02-16T01:19:48.120Z,31.40
2023-02-16T01:22:15.776Z,27.63
2023-02-16T01:24:43.269Z,30.00
2023-02-16T01:27:12.115Z,31.90
2023-02-16T01:29:40.936Z,30.80
2023-02-16T01:32:08.496Z,29.17
2023-02-16T01:34:36.028Z,28.90
2023-02-16T01:37:03.622Z,32.23
2023-02-16T01:39:31.111Z,29.37
2023-02-16T01:42:05.671Z,27.03
2023-02-16T01:44:36.611Z,30.40
2023-02-16T01:47:11.987Z,27.97
2023-02-16T01:49:39.484Z,29.20
2023-02-16T01:52:13.161Z,27.87
2023-02-16T01:54:44.507Z,26.90
2023-02-16T01:57:23.442Z,25.60
2023-02-16T02:00:08.401Z,28.27
2023-02-16T02:02:38.349Z,26.03
2023-02-16T02:05:30.258Z,27.83
2023-02-16T02:08:00.837Z,27.90
2023-02-16T02:10:32.127Z,29.03
2023-02-16T02:13:05.858Z,24.83
2023-02-16T02:15:34.267Z,23.50
2023-02-16T02:18:03.357Z,27.67
2023-02-16T02:21:00.559Z,25.40
2023-02-16T02:23:40.477Z,22.67
2023-02-16T02:26:36.180Z,23.80
2023-02-16T02:29:16.867Z,27.03
2023-02-16T02:31:51.021Z,24.87
2023-02-16T02:34:25.123Z,22.57
2023-02-16T02:36:58.485Z,28.00
2023-02-16T02:39:33.203Z,23.10
2023-02-16T02:42:04.825Z,24.27
2023-02-16T02:44:32.867Z,25.90
2023-02-16T02:47:00.661Z,21.87
2023-02-16T02:49:28.266Z,25.17
2023-02-16T02:51:55.954Z,22.70
2023-02-16T02:54:43.317Z,22.00
2023-02-16T02:57:33.523Z,24.77
2023-02-16T03:00:20.262Z,22.37
2023-02-16T03:02:50.635Z,24.47
2023-02-16T03:05:19.675Z,21.27
2023-02-16T03:07:47.927Z,22.37
2023-02-16T03:10:34.537Z,22.60
2023-02-16T03:13:05.371Z,23.70
2023-02-16T03:15:33.103Z,24.00
2023-02-16T03:18:18.799Z,23.33
2023-02-16T03:21:04.918Z,23.67
2023-02-16T03:23:50.478Z,21.63
2023-02-16T03:26:37.422Z,22.20
2023-02-16T03:29:21.884Z,21.57
2023-02-16T03:31:49.756Z,25.50
2023-02-16T03:34:18.449Z,21.77
2023-02-16T03:36:48.507Z,24.10
2023-02-16T03:39:16.248Z,22.77
2023-02-16T03:41:46.854Z,23.50
2023-02-16T03:44:15.910Z,23.00
2023-02-16T03:46:43.719Z,23.23
2023-02-16T03:49:11.347Z,21.57
2023-02-16T03:51:38.887Z,24.33
2023-02-16T03:54:06.481Z,23.37
2023-02-16T03:56:34.080Z,20.73
2023-02-16T03:59:01.572Z,21.70
2023-02-16T04:01:30.619Z,22.20
2023-02-16T04:03:58.204Z,23.73
2023-02-16T04:06:25.855Z,22.87
2023-02-16T04:08:54.489Z,25.80
2023-02-16T04:11:39.786Z,22.83
2023-02-16T04:14:07.590Z,25.07
2023-02-16T04:16:36.594Z,25.77
2023-02-16T04:19:04.106Z,23.70
2023-02-16T04:21:31.600Z,23.97
2023-02-16T04:23:59.128Z,23.43
2023-02-16T04:26:26.820Z,21.80
2023-02-16T04:28:54.324Z,23.17
2023-02-16T04:31:21.956Z,24.50
2023-02-16T04:33:50.880Z,22.57
2023-02-16T04:36:18.562Z,25.20
2023-02-16T04:38:46.110Z,22.70
2023-02-16T04:41:13.625Z,24.80
2023-02-16T04:43:41.171Z,22.63
2023-02-16T04:46:08.711Z,25.40
2023-02-16T04:48:36.197Z,24.00
2023-02-16T04:51:06.341Z,23.33
2023-02-16T04:53:34.012Z,23.07
2023-02-16T04:56:01.520Z,21.37
2023-02-16T04:58:29.090Z,23.10
2023-02-16T05:00:56.756Z,22.30
2023-02-16T05:03:24.286Z,21.67
2023-02-16T05:05:51.777Z,21.90
2023-02-16T05:08:20.954Z,20.47
2023-02-16T05:11:08.677Z,21.60
2023-02-16T05:14:02.312Z,22.63
2023-02-16T05:16:29.972Z,21.40
2023-02-16T05:18:58.819Z,20.20
2023-02-16T05:21:32.468Z,21.17
2023-02-16T05:24:03.089Z,20.57
2023-02-16T05:26:30.704Z,21.00
2023-02-16T05:28:58.302Z,24.27
2023-02-16T05:31:26.089Z,23.50
2023-02-16T05:33:53.697Z,21.70
2023-02-16T05:36:21.930Z,23.00
2023-02-16T05:38:49.466Z,22.30
2023-02-16T05:41:24.264Z,24.03
2023-02-16T05:43:53.099Z,20.90
2023-02-16T05:46:21.143Z,24.30
2023-02-16T05:48:48.973Z,22.37
2023-02-16T05:51:16.668Z,22.60
2023-02-16T05:53:44.227Z,21.27
2023-02-16T05:56:12.093Z,22.70
2023-02-16T05:58:41.029Z,21.20
2023-02-16T06:01:08.522Z,23.10
2023-02-16T06:03:36.623Z,21.70
2023-02-16T06:06:05.525Z,22.10
2023-02-16T06:08:33.732Z,23.37
2023-02-16T06:11:01.578Z,21.87
2023-02-16T06:13:29.269Z,22.43
2023-02-16T06:16:00.226Z,22.50
2023-02-16T06:18:27.989Z,23.57
2023-02-16T06:20:57.749Z,23.30
2023-02-16T06:23:25.258Z,23.00
2023-02-16T06:25:52.722Z,22.83
2023-02-16T06:28:20.208Z,25.13
2023-02-16T06:30:47.701Z,24.30
2023-02-16T06:33:16.527Z,24.57
2023-02-16T06:35:43.982Z,25.43
2023-02-16T06:38:11.677Z,23.90
2023-02-16T06:40:39.193Z,24.53
2023-02-16T06:43:06.713Z,21.27
2023-02-16T06:45:34.200Z,25.43
2023-02-16T06:48:01.830Z,23.20
2023-02-16T06:50:30.728Z,22.13
2023-02-16T06:52:58.211Z,23.53
2023-02-16T06:55:25.681Z,24.30
2023-02-16T06:57:53.164Z,23.47
2023-02-16T07:00:21.240Z,24.23
2023-02-16T07:02:48.706Z,23.00
2023-02-16T07:05:16.696Z,22.83
2023-02-16T07:07:45.513Z,26.17
2023-02-16T07:10:14.341Z,22.33
2023-02-16T07:12:41.900Z,24.87
2023-02-16T07:15:10.201Z,25.97
2023-02-16T07:17:37.722Z,24.80
2023-02-16T07:20:06.032Z,25.60
2023-02-16T07:22:33.826Z,25.67
2023-02-16T07:25:03.178Z,23.10
2023-02-16T07:27:30.672Z,23.63
2023-02-16T07:29:58.243Z,23.57
2023-02-16T07:32:25.845Z,24.23
2023-02-16T07:34:53.364Z,22.47
2023-02-16T07:37:20.815Z,23.50
2023-02-16T07:39:48.670Z,22.13
2023-02-16T07:42:17.546Z,21.40
2023-02-16T07:44:45.042Z,19.97
2023-02-16T07:47:13.366Z,21.25
2023-02-16T07:49:41.198Z,21.30
2023-02-16T07:52:08.718Z,21.90
2023-02-16T07:54:36.477Z,20.50
2023-02-16T07:57:04.083Z,19.90
2023-02-16T07:59:32.926Z,20.40
2023-02-16T08:02:00.618Z,21.00
2023-02-16T08:04:28.250Z,18.73
2023-02-16T08:06:55.708Z,20.07
2023-02-16T08:09:23.194Z,21.53
2023-02-16T08:11:50.701Z,22.50
2023-02-16T08:14:18.205Z,19.30
2023-02-16T08:16:47.055Z,19.53
2023-02-16T08:19:14.571Z,21.07
2023-02-16T08:21:42.099Z,18.97
2023-02-16T08:24:13.064Z,22.20
2023-02-16T08:26:43.137Z,17.70
2023-02-16T08:29:13.036Z,18.83
2023-02-16T08:31:41.713Z,17.87
2023-02-16T08:34:11.139Z,19.40
2023-02-16T08:36:39.965Z,18.47
2023-02-16T08:39:09.744Z,19.60
2023-02-16T08:41:37.991Z,19.43
2023-02-16T08:44:07.058Z,20.47
2023-02-16T08:46:35.254Z,20.50
2023-02-16T08:49:03.036Z,21.93
2023-02-16T08:51:34.705Z,22.00
2023-02-16T08:54:05.834Z,21.20
2023-02-16T08:56:34.403Z,19.27
2023-02-16T08:59:02.499Z,20.33
2023-02-16T09:01:30.789Z,17.70
2023-02-16T09:03:58.874Z,18.43
2023-02-16T09:06:26.473Z,18.17
2023-02-16T09:08:57.197Z,18.20
2023-02-16T09:11:25.708Z,17.33
2023-02-16T09:13:53.164Z,17.23
2023-02-16T09:16:22.375Z,17.10
2023-02-16T09:18:50.784Z,18.17
2023-02-16T09:21:20.836Z,17.40
2023-02-16T09:23:49.950Z,18.00
2023-02-16T09:26:20.252Z,20.53
2023-02-16T09:28:48.537Z,19.20
2023-02-16T09:31:19.961Z,17.20
2023-02-16T09:33:47.692Z,17.63
2023-02-16T09:36:15.171Z,20.30
2023-02-16T09:38:43.083Z,18.30
2023-02-16T09:41:23.781Z,20.07
2023-02-16T09:43:55.970Z,20.20
2023-02-16T09:46:25.341Z,19.47
2023-02-16T09:48:53.041Z,19.07
2023-02-16T09:51:33.920Z,18.70
2023-02-16T09:54:09.766Z,18.93
2023-02-16T09:56:41.968Z,19.90
2023-02-16T09:59:13.069Z,19.27
2023-02-16T10:01:45.497Z,21.83
2023-02-16T10:04:25.416Z,20.00
2023-02-16T10:07:00.885Z,19.23
2023-02-16T10:09:30.475Z,20.23
2023-02-16T10:12:08.333Z,22.53
2023-02-16T10:14:42.213Z,21.17
2023-02-16T10:17:16.878Z,21.00
2023-02-16T10:19:49.586Z,23.10
2023-02-16T10:22:34.058Z,21.67
2023-02-16T10:25:07.730Z,23.07
2023-02-16T10:27:39.770Z,23.17
2023-02-16T10:30:19.828Z,23.50
2023-02-16T10:32:57.934Z,23.27
2023-02-16T10:35:31.489Z,22.10
2023-02-16T10:38:03.706Z,21.87
2023-02-16T10:40:38.810Z,22.03
2023-02-16T10:43:14.028Z,21.10
2023-02-16T10:45:49.524Z,23.30
2023-02-16T10:48:20.716Z,24.27
2023-02-16T10:50:54.763Z,22.77
2023-02-16T10:53:24.803Z,21.37
2023-02-16T10:55:54.443Z,22.83
2023-02-16T10:58:27.680Z,22.90
2023-02-16T11:00:59.648Z,25.10
2023-02-16T11:03:32.885Z,24.50
2023-02-16T11:06:13.934Z,22.90
2023-02-16T11:08:50.917Z,22.77
2023-02-16T11:11:22.824Z,23.47
2023-02-16T11:14:02.546Z,23.97
2023-02-16T11:16:30.731Z,22.97
2023-02-16T11:19:00.293Z,25.17
2023-02-16T11:21:45.031Z,23.03
2023-02-16T11:24:25.324Z,22.73
2023-02-16T11:27:01.959Z,25.10
2023-02-16T11:29:31.428Z,23.37
2023-02-16T11:32:03.878Z,25.27
2023-02-16T11:34:34.116Z,23.57
2023-02-16T11:37:06.243Z,22.33
2023-02-16T11:39:37.454Z,24.20
2023-02-16T11:42:08.109Z,24.40
2023-02-16T11:44:43.643Z,24.90
2023-02-16T11:47:24.500Z,26.40
2023-02-16T11:50:09.871Z,25.93
2023-02-16T11:52:37.565Z,24.97
2023-02-16T11:55:05.998Z,26.07
2023-02-16T11:57:35.802Z,27.37
2023-02-16T12:00:15.717Z,28.20
2023-02-16T12:03:03.321Z,25.60
2023-02-16T12:05:39.357Z,26.77
2023-02-16T12:08:22.158Z,25.50
2023-02-16T12:11:04.373Z,24.57
2023-02-16T12:13:37.531Z,24.00
2023-02-16T12:16:16.760Z,23.27
2023-02-16T12:18:52.173Z,25.17
2023-02-16T12:21:23.766Z,25.70
2023-02-16T12:23:56.823Z,22.10
2023-02-16T12:26:36.592Z,24.20
2023-02-16T12:29:20.549Z,23.03
2023-02-16T12:32:05.910Z,24.10
2023-02-16T12:34:41.068Z,23.47
2023-02-16T12:37:16.808Z,24.47
2023-02-16T12:39:50.849Z,21.90
2023-02-16T12:42:38.819Z,22.57
2023-02-16T12:45:10.839Z,22.30
2023-02-16T12:47:44.059Z,21.90
2023-02-16T12:50:19.624Z,18.60
2023-02-16T12:52:49.958Z,21.00
2023-02-16T12:55:22.894Z,20.53
2023-02-16T12:57:56.031Z,20.13
2023-02-16T13:00:27.330Z,19.70
2023-02-16T13:03:03.044Z,19.50
2023-02-16T13:05:33.309Z,20.27
2023-02-16T13:08:08.272Z,17.70
2023-02-16T13:10:37.728Z,18.60
2023-02-16T13:13:07.400Z,17.57
2023-02-16T13:15:38.051Z,18.80
2023-02-16T13:18:13.782Z,18.30
2023-02-16T13:20:45.592Z,16.77
2023-02-16T13:23:31.763Z,16.30
2023-02-16T13:26:11.974Z,18.70
2023-02-16T13:28:55.568Z,15.90
2023-02-16T13:31:30.615Z,18.23
2023-02-16T13:34:13.793Z,18.20
2023-02-16T13:36:50.713Z,16.23
2023-02-16T13:39:32.681Z,19.70
2023-02-16T13:42:44.040Z,17.23
2023-02-16T13:45:15.928Z,19.60
2023-02-16T13:47:47.457Z,17.40
2023-02-16T13:50:31.008Z,15.53
2023-02-16T13:53:02.149Z,16.50
2023-02-16T13:55:33.567Z,16.63
2023-02-16T13:58:07.574Z,17.43
2023-02-16T14:00:37.994Z,17.23
2023-02-16T14:03:12.238Z,16.90
2023-02-16T14:05:43.519Z,18.50
2023-02-16T14:08:30.336Z,16.80
2023-02-16T14:11:00.620Z,18.27
2023-02-16T14:13:29.752Z,16.57
2023-02-16T14:16:02.424Z,17.93
2023-02-16T14:18:33.646Z,16.77
2023-02-16T14:21:03.372Z,18.33
2023-02-16T14:23:34.401Z,17.47
2023-02-16T14:26:03.543Z,19.60
2023-02-16T14:29:12.431Z,17.97
2023-02-16T14:31:48.239Z,17.40
2023-02-16T14:34:20.244Z,18.03
2023-02-16T14:37:11.656Z,18.60
2023-02-16T14:40:04.050Z,18.20
2023-02-16T14:42:29.874Z,17.00
2023-02-16T14:45:10.131Z,17.60
2023-02-16T14:47:45.747Z,17.50
2023-02-16T14:50:32.869Z,18.37
2023-02-16T14:53:20.657Z,18.87
2023-02-16T14:56:19.427Z,19.00
2023-02-16T14:58:52.991Z,18.80
2023-02-16T15:01:22.511Z,18.30
2023-02-16T15:03:51.559Z,19.17
2023-02-16T15:06:23.773Z,20.00
2023-02-16T15:08:58.165Z,18.90
2023-02-16T15:11:31.818Z,19.77
2023-02-16T15:14:04.721Z,18.33
2023-02-16T15:16:33.499Z,18.33
2023-02-16T15:19:04.412Z,17.70
2023-02-16T15:21:31.939Z,19.10
2023-02-16T15:24:02.777Z,19.40
2023-02-16T15:26:33.062Z,18.87
2023-02-16T15:29:04.988Z,20.07
2023-02-16T15:31:34.527Z,20.30
2023-02-16T15:34:05.565Z,19.60
2023-02-16T15:36:35.305Z,20.60
2023-02-16T15:39:06.958Z,20.60
2023-02-16T15:41:36.178Z,21.27
2023-02-16T15:44:05.723Z,20.13
2023-02-16T15:46:36.564Z,20.77
2023-02-16T15:49:12.464Z,20.20
2023-02-16T15:51:43.004Z,19.17
2023-02-16T15:54:20.944Z,20.03
2023-02-16T15:56:49.663Z,19.13
2023-02-16T15:59:32.060Z,21.77
2023-02-16T16:02:02.677Z,21.50
2023-02-16T16:04:31.845Z,20.63
2023-02-16T16:07:00.103Z,19.20
2023-02-16T16:09:31.232Z,19.83
2023-02-16T16:12:01.861Z,20.37
2023-02-16T16:14:29.931Z,20.90
2023-02-16T16:16:57.570Z,18.70
2023-02-16T16:19:33.212Z,18.90
2023-02-16T16:22:01.174Z,20.67
2023-02-16T16:24:35.259Z,20.17
2023-02-16T16:27:08.067Z,20.43
2023-02-16T16:29:41.092Z,21.50
2023-02-16T16:32:18.590Z,20.93
2023-02-16T16:34:49.593Z,20.10
2023-02-16T16:37:29.657Z,20.90
2023-02-16T16:40:05.229Z,21.43
2023-02-16T16:42:34.088Z,19.67
2023-02-16T16:45:07.607Z,21.50
2023-02-16T16:47:38.176Z,21.47
2023-02-16T16:50:19.323Z,18.17
2023-02-16T16:52:48.659Z,20.27
2023-02-16T16:55:30.324Z,22.20
2023-02-16T16:58:00.335Z,21.50
2023-02-16T17:00:30.713Z,21.47
2023-02-16T17:02:58.407Z,19.50
2023-02-16T17:05:28.062Z,22.70
2023-02-16T17:07:55.520Z,21.40
2023-02-16T17:10:25.918Z,19.40
2023-02-16T17:12:59.658Z,20.37
2023-02-16T17:15:40.646Z,20.83
2023-02-16T17:18:10.574Z,19.63
2023-02-16T17:20:38.126Z,20.77
2023-02-16T17:23:06.056Z,20.50
2023-02-16T17:25:37.136Z,20.67
2023-02-16T17:28:06.705Z,23.10
2023-02-16T17:30:42.872Z,18.77
2023-02-16T17:33:11.116Z,19.87
2023-02-16T17:35:41.019Z,20.50
2023-02-16T17:38:20.580Z,19.40
2023-02-16T17:40:48.376Z,18.23
2023-02-16T17:43:21.713Z,20.40
2023-02-16T17:45:50.056Z,20.30
2023-02-16T17:48:20.168Z,18.67
2023-02-16T17:50:49.229Z,19.47
2023-02-16T17:53:18.738Z,20.50
2023-02-16T17:55:47.448Z,20.17
2023-02-16T17:58:17.271Z,20.77
2023-02-16T18:00:47.611Z,20.03
2023-02-16T18:03:15.427Z,20.13
2023-02-16T18:05:43.162Z,20.50
2023-02-16T18:08:11.964Z,19.47
2023-02-16T18:10:41.715Z,19.77
2023-02-16T18:13:10.760Z,19.80
2023-02-16T18:15:40.685Z,19.13
2023-02-16T18:18:11.219Z,18.13
2023-02-16T18:20:38.903Z,21.10
2023-02-16T18:23:06.411Z,20.50
2023-02-16T18:25:34.094Z,21.10
2023-02-16T18:28:01.581Z,20.17
2023-02-16T18:30:29.138Z,22.10
2023-02-16T18:32:58.197Z,19.73
2023-02-16T18:35:25.644Z,21.70
2023-02-16T18:37:53.298Z,23.80
2023-02-16T18:40:22.093Z,20.60
2023-02-16T18:42:49.694Z,23.27
2023-02-16T18:45:17.607Z,20.87
2023-02-16T18:47:45.262Z,23.33
2023-02-16T18:50:14.577Z,21.90
2023-02-16T18:52:43.246Z,24.43
2023-02-16T18:55:11.190Z,24.57
2023-02-16T18:57:39.071Z,21.97
2023-02-16T19:00:08.737Z,23.70
2023-02-16T19:02:37.061Z,23.27
2023-02-16T19:05:06.822Z,24.33
2023-02-16T19:07:36.131Z,24.30
2023-02-16T19:10:04.431Z,22.37
2023-02-16T19:12:32.215Z,21.10
2023-02-16T19:15:00.449Z,22.20
2023-02-16T19:17:27.987Z,23.30
2023-02-16T19:19:55.647Z,23.13
2023-02-16T19:22:26.826Z,22.70
2023-02-16T19:24:57.894Z,23.20
2023-02-16T19:27:28.029Z,25.77
2023-02-16T19:29:58.203Z,21.90
2023-02-16T19:32:26.915Z,22.40
2023-02-16T19:35:00.437Z,21.97
2023-02-16T19:37:29.286Z,23.50
2023-02-16T19:39:58.398Z,23.20
2023-02-16T19:42:26.012Z,23.23
2023-02-16T19:44:56.551Z,24.27
2023-02-16T19:47:24.193Z,21.93
2023-02-16T19:49:51.895Z,23.80
2023-02-16T19:52:19.424Z,23.97
2023-02-16T19:54:47.075Z,24.13
2023-02-16T19:57:16.169Z,23.80
2023-02-16T19:59:46.582Z,21.20
2023-02-16T20:02:16.700Z,23.67
2023-02-16T20:04:44.368Z,23.07
2023-02-16T20:07:12.149Z,23.73
2023-02-16T20:09:48.624Z,20.60
2023-02-16T20:12:17.524Z,22.83
2023-02-16T20:14:45.280Z,21.23
2023-02-16T20:17:12.919Z,23.00
2023-02-16T20:19:40.733Z,24.17
2023-02-16T20:22:08.439Z,23.50
2023-02-16T20:24:36.483Z,24.23
2023-02-16T20:27:04.995Z,20.80
2023-02-16T20:29:35.211Z,23.10
2023-02-16T20:32:04.918Z,24.10
2023-02-16T20:34:33.633Z,22.60
2023-02-16T20:37:01.393Z,22.10
2023-02-16T20:39:33.124Z,21.27
2023-02-16T20:42:02.714Z,23.87
2023-02-16T20:44:30.374Z,22.00
2023-02-16T20:47:01.616Z,25.13
2023-02-16T20:49:29.298Z,22.70
2023-02-16T20:51:56.985Z,22.83
2023-02-16T20:54:24.569Z,23.97
2023-02-16T20:56:52.186Z,23.23
2023-02-16T20:59:19.646Z,24.47
2023-02-16T21:01:50.258Z,22.37
2023-02-16T21:04:20.861Z,23.23
2023-02-16T21:06:48.643Z,24.63
2023-02-16T21:09:16.720Z,20.50
2023-02-16T21:11:44.516Z,21.80
2023-02-16T21:14:15.430Z,23.27
2023-02-16T21:16:43.480Z,21.57
2023-02-16T21:19:22.243Z,20.47
2023-02-16T21:21:53.645Z,20.07
2023-02-16T21:24:28.624Z,22.10
2023-02-16T21:26:58.404Z,19.27
2023-02-16T21:29:26.012Z,20.80
2023-02-16T21:31:53.687Z,21.60
2023-02-16T21:34:21.683Z,21.33
2023-02-16T21:36:49.314Z,20.80
2023-02-16T21:39:18.269Z,22.90
2023-02-16T21:41:47.122Z,22.00
2023-02-16T21:44:18.986Z,20.57
2023-02-16T21:46:47.942Z,21.10
2023-02-16T21:49:17.136Z,22.87
2023-02-16T21:51:45.409Z,21.87
2023-02-16T21:54:15.514Z,21.87
2023-02-16T21:56:45.483Z,22.53
2023-02-16T21:59:14.497Z,20.73
2023-02-16T22:01:43.724Z,21.37
2023-02-16T22:04:12.473Z,22.20
2023-02-16T22:06:42.491Z,19.97
2023-02-16T22:09:14.065Z,18.17
2023-02-16T22:11:42.069Z,21.23
2023-02-16T22:14:11.491Z,19.00
2023-02-16T22:16:39.616Z,22.53
2023-02-16T22:19:09.070Z,20.97
2023-02-16T22:21:37.837Z,22.10
2023-02-16T22:24:06.804Z,20.53
2023-02-16T22:26:35.876Z,19.80
2023-02-16T22:29:09.388Z,21.50
2023-02-16T22:31:38.965Z,21.43
2023-02-16T22:34:13.607Z,20.17
2023-02-16T22:36:42.199Z,21.30
2023-02-16T22:39:09.820Z,21.17
2023-02-16T22:41:39.900Z,20.13
2023-02-16T22:44:10.106Z,18.20
2023-02-16T22:46:39.112Z,21.30
2023-02-16T22:49:08.907Z,20.77
2023-02-16T22:51:37.515Z,21.30
2023-02-16T22:54:08.552Z,18.83
2023-02-16T22:56:37.619Z,20.93
2023-02-16T22:59:07.278Z,21.83
2023-02-16T23:01:35.348Z,19.23
2023-02-16T23:04:06.141Z,19.97
2023-02-16T23:06:37.555Z,19.77
2023-02-16T23:09:07.937Z,23.70
2023-02-16T23:11:37.495Z,19.57
2023-02-16T23:14:05.908Z,21.70
2023-02-16T23:16:35.777Z,21.03
2023-02-16T23:19:05.165Z,20.20
2023-02-16T23:21:34.090Z,19.73
2023-02-16T23:24:05.694Z,20.43
2023-02-16T23:26:33.666Z,19.97
2023-02-16T23:29:08.401Z,20.20
2023-02-16T23:31:37.418Z,20.03
2023-02-16T23:34:07.425Z,20.23
2023-02-16T23:36:36.217Z,19.17
2023-02-16T23:39:06.212Z,19.70
2023-02-16T23:41:33.735Z,19.30
2023-02-16T23:44:01.435Z,19.50
2023-02-16T23:46:29.004Z,18.73
2023-02-16T23:48:56.664Z,20.30
2023-02-16T23:51:25.466Z,18.10
2023-02-16T23:53:53.009Z,20.40
2023-02-16T23:56:27.338Z,19.87
2023-02-16T23:58:58.366Z,19.57
